createdAt,value
2017-08-07T09:29:25.875Z,47.9
2017-08-07T09:30:27.281Z,49.0
2017-08-07T09:31:28.692Z,49.7
2017-08-07T09:32:30.499Z,52.0
2017-08-07T09:33:31.902Z,54.1
2017-08-07T09:34:33.319Z,48.1
2017-08-07T09:35:34.739Z,46.0
2017-08-07T09:36:36.154Z,44.9
2017-08-07T09:37:37.573Z,43.9
2017-08-07T09:38:38.999Z,42.7
2017-08-07T09:39:40.422Z,41.6
2017-08-07T09:40:41.840Z,41.8
2017-08-07T09:41:43.254Z,41.1
2017-08-07T09:42:44.676Z,46.0
2017-08-07T09:43:46.092Z,47.5
2017-08-07T09:44:47.508Z,44.7
2017-08-07T09:45:48.928Z,44.6
2017-08-07T09:46:50.346Z,43.0
2017-08-07T09:47:52.149Z,42.1
2017-08-07T09:48:53.573Z,42.0
2017-08-07T09:49:54.996Z,41.3
2017-08-07T09:50:56.426Z,45.4
2017-08-07T09:51:57.847Z,47.0
2017-08-07T09:52:59.269Z,40.7
2017-08-07T09:54:00.684Z,42.1
2017-08-07T09:55:02.101Z,39.3
2017-08-07T09:56:03.528Z,42.5
2017-08-07T09:57:04.942Z,42.8
2017-08-07T09:58:06.364Z,42.3
2017-08-07T09:59:07.786Z,43.4
2017-08-07T10:00:09.200Z,40.8
2017-08-07T10:01:10.616Z,40.8
2017-08-07T10:02:12.076Z,40.1
2017-08-07T10:03:13.494Z,41.2
2017-08-07T10:04:14.913Z,43.6
2017-08-07T10:05:16.403Z,42.4
2017-08-07T10:06:17.814Z,41.5
2017-08-07T10:07:19.288Z,39.5
2017-08-07T10:08:20.693Z,39.9
2017-08-07T10:09:22.157Z,40.6
2017-08-07T10:10:23.578Z,40.5
2017-08-07T10:11:25.037Z,42.0
2017-08-07T10:12:26.459Z,44.5
2017-08-07T10:13:27.925Z,43.5
2017-08-07T10:14:29.345Z,44.3
2017-08-07T10:15:30.803Z,43.4
2017-08-07T10:16:32.217Z,43.1
2017-08-07T10:17:33.690Z,43.5
2017-08-07T10:18:35.122Z,43.4
2017-08-07T10:19:36.576Z,43.9
2017-08-07T10:20:37.976Z,44.6
2017-08-07T10:21:39.416Z,48.7
2017-08-07T10:22:40.876Z,48.7
2017-08-07T10:23:42.293Z,43.6
2017-08-07T10:24:43.713Z,44.8
2017-08-07T10:25:45.254Z,47.2
2017-08-07T10:26:46.674Z,48.2
2017-08-07T10:27:48.187Z,46.7
2017-08-07T10:28:49.608Z,47.1
2017-08-07T10:29:51.066Z,45.6
2017-08-07T10:30:52.482Z,44.5
2017-08-07T10:31:53.948Z,42.6
2017-08-07T10:32:55.364Z,43.8
2017-08-07T10:33:56.829Z,41.8
2017-08-07T10:34:58.245Z,42.0
2017-08-07T10:35:59.708Z,42.6
2017-08-07T10:37:01.145Z,44.9
2017-08-07T10:38:02.589Z,43.6
2017-08-07T10:39:04.030Z,42.0
2017-08-07T10:40:05.467Z,41.1
2017-08-07T10:41:06.888Z,42.1
2017-08-07T10:42:08.350Z,41.2
2017-08-07T10:43:09.765Z,40.3
2017-08-07T10:44:11.232Z,40.6
2017-08-07T10:45:12.650Z,39.8
2017-08-07T10:46:14.110Z,39.3
2017-08-07T10:47:15.526Z,40.7
2017-08-07T10:48:16.994Z,40.4
2017-08-07T10:49:18.405Z,42.9
2017-08-07T10:50:19.873Z,39.4
2017-08-07T10:51:21.292Z,39.5
2017-08-07T10:52:22.753Z,38.2
2017-08-07T10:53:24.172Z,40.4
2017-08-07T10:54:25.633Z,42.1
2017-08-07T10:55:27.111Z,42.9
2017-08-07T10:56:28.525Z,42.4
2017-08-07T10:57:29.944Z,41.5
2017-08-07T10:58:31.359Z,37.4
2017-08-07T10:59:32.836Z,36.7
2017-08-07T11:00:34.257Z,37.9
2017-08-07T11:01:35.672Z,35.5
2017-08-07T11:02:37.153Z,38.5
2017-08-07T11:03:38.568Z,40.7
2017-08-07T11:04:39.982Z,42.2
2017-08-07T11:05:41.487Z,41.5
2017-08-07T11:06:42.903Z,41.6
2017-08-07T11:07:44.317Z,42.5
2017-08-07T11:08:45.792Z,44.6
2017-08-07T11:09:47.211Z,40.4
2017-08-07T11:10:48.629Z,38.9
2017-08-07T11:11:50.117Z,35.4
2017-08-07T11:12:51.538Z,39.4
2017-08-07T11:13:52.949Z,39.3
2017-08-07T11:14:54.443Z,40.9
2017-08-07T11:15:55.864Z,42.9
2017-08-07T11:16:57.276Z,40.3
2017-08-07T11:17:58.756Z,41.0
2017-08-07T11:19:00.175Z,40.6
2017-08-07T11:20:01.639Z,40.1
2017-08-07T11:21:03.079Z,36.8
2017-08-07T11:22:04.523Z,35.5
2017-08-07T11:23:05.939Z,32.9
2017-08-07T11:24:07.400Z,33.8
2017-08-07T11:25:08.818Z,32.4
2017-08-07T11:26:10.284Z,26.8
2017-08-07T11:27:11.701Z,28.8
2017-08-07T11:28:13.115Z,31.0
2017-08-07T11:29:14.614Z,32.4
2017-08-07T11:30:16.021Z,25.0
2017-08-07T11:31:17.442Z,27.3
2017-08-07T11:32:18.930Z,27.3
2017-08-07T11:33:20.346Z,27.1
2017-08-07T11:34:21.807Z,26.1
2017-08-07T11:35:23.637Z,22.8
2017-08-07T11:36:25.101Z,23.8
2017-08-07T11:37:26.522Z,23.4
2017-08-07T11:38:27.977Z,24.3
2017-08-07T11:39:29.395Z,22.7
2017-08-07T11:40:30.855Z,21.3
2017-08-07T11:41:32.653Z,20.4
2017-08-07T11:42:34.070Z,22.0
2017-08-07T11:43:36.509Z,19.0
2017-08-07T11:44:37.929Z,19.7
2017-08-07T11:45:39.356Z,19.7
2017-08-07T11:46:40.831Z,20.6
2017-08-07T11:47:42.246Z,20.5
2017-08-07T11:48:43.665Z,22.0
2017-08-07T11:49:45.151Z,24.2
2017-08-07T11:50:46.567Z,23.2
2017-08-07T11:51:47.989Z,23.1
2017-08-07T11:52:49.471Z,25.8
2017-08-07T11:53:50.954Z,25.0
2017-08-07T11:54:52.368Z,26.2
2017-08-07T11:55:53.894Z,25.8
2017-08-07T11:56:55.308Z,25.0
2017-08-07T11:57:57.117Z,24.6
2017-08-07T11:58:58.627Z,25.7
2017-08-07T12:00:00.050Z,24.6
2017-08-07T12:01:01.477Z,24.0
2017-08-07T12:02:02.958Z,27.1
2017-08-07T12:03:04.381Z,26.4
2017-08-07T12:04:05.825Z,27.0
2017-08-07T12:05:07.252Z,26.3
2017-08-07T12:06:08.706Z,26.2
2017-08-07T12:07:10.129Z,27.4
2017-08-07T12:08:11.551Z,24.0
2017-08-07T12:09:13.028Z,25.7
2017-08-07T12:10:14.452Z,27.8
2017-08-07T12:11:15.873Z,26.8
2017-08-07T12:12:17.347Z,26.7
2017-08-07T12:13:19.144Z,27.1
2017-08-07T12:14:20.573Z,28.3
2017-08-07T12:15:22.086Z,27.7
2017-08-07T12:16:23.517Z,28.9
2017-08-07T12:17:24.936Z,29.2
2017-08-07T12:18:26.396Z,32.4
2017-08-07T12:19:27.813Z,34.0
2017-08-07T12:20:29.241Z,32.4
2017-08-07T12:21:31.108Z,32.6
2017-08-07T12:22:32.524Z,34.8
2017-08-07T12:23:34.011Z,35.5
2017-08-07T12:24:35.433Z,30.6
2017-08-07T12:25:37.968Z,30.1
2017-08-07T12:26:39.355Z,33.1
2017-08-07T12:27:40.912Z,35.2
2017-08-07T12:28:42.333Z,32.8
2017-08-07T12:29:43.778Z,30.8
2017-08-07T12:30:45.196Z,31.3
2017-08-07T12:31:46.660Z,31.6
2017-08-07T12:32:48.080Z,31.4
2017-08-07T12:33:49.547Z,27.5
2017-08-07T12:34:50.965Z,28.8
2017-08-07T12:35:52.421Z,31.4
2017-08-07T12:36:53.838Z,31.6
2017-08-07T12:37:55.253Z,28.8
2017-08-07T12:38:56.742Z,26.6
2017-08-07T12:39:58.157Z,30.2
2017-08-07T12:40:59.576Z,33.5
2017-08-07T12:42:01.061Z,34.0
2017-08-07T12:43:02.479Z,34.6
2017-08-07T12:44:03.948Z,36.4
2017-08-07T12:45:05.358Z,35.3
2017-08-07T12:46:06.835Z,35.6
2017-08-07T12:47:08.253Z,36.3
2017-08-07T12:48:09.670Z,36.7
2017-08-07T12:49:11.145Z,33.9
2017-08-07T12:50:12.558Z,33.7
2017-08-07T12:51:13.998Z,35.2
2017-08-07T12:52:15.485Z,36.9
2017-08-07T12:53:16.901Z,34.5
2017-08-07T12:54:18.346Z,37.0
2017-08-07T12:55:19.771Z,36.7
2017-08-07T12:56:21.229Z,35.7
2017-08-07T12:57:22.651Z,30.2
2017-08-07T12:58:24.509Z,26.9
2017-08-07T12:59:25.925Z,25.1
2017-08-07T13:00:27.406Z,26.9
2017-08-07T13:01:28.820Z,23.9
2017-08-07T13:02:30.279Z,22.9
2017-08-07T13:03:31.740Z,25.7
2017-08-07T13:04:33.162Z,26.4
2017-08-07T13:05:35.584Z,26.7
2017-08-07T13:06:36.488Z,25.6
2017-08-07T13:07:37.908Z,26.6
2017-08-07T13:08:39.327Z,26.3
2017-08-07T13:09:40.773Z,27.1
2017-08-07T13:10:42.189Z,23.7
2017-08-07T13:11:43.613Z,24.8
2017-08-07T13:12:45.038Z,24.9
2017-08-07T13:13:46.456Z,24.3
2017-08-07T13:14:47.876Z,25.1
2017-08-07T13:15:49.297Z,24.0
2017-08-07T13:16:50.717Z,23.8
2017-08-07T13:17:52.133Z,23.9
2017-08-07T13:18:53.560Z,22.9
2017-08-07T13:19:54.975Z,23.9
2017-08-07T13:20:56.444Z,25.3
2017-08-07T13:21:57.868Z,25.0
2017-08-07T13:22:59.298Z,26.2
2017-08-07T13:24:00.712Z,26.8
2017-08-07T13:25:02.135Z,27.2
2017-08-07T13:26:03.552Z,29.1
2017-08-07T13:27:05.000Z,28.8
2017-08-07T13:28:06.417Z,28.1
2017-08-07T13:29:07.839Z,30.4
2017-08-07T13:30:09.256Z,33.8
2017-08-07T13:31:10.678Z,35.4
2017-08-07T13:32:12.101Z,28.5
2017-08-07T13:33:13.514Z,29.9
2017-08-07T13:34:15.035Z,30.3
2017-08-07T13:35:16.447Z,30.0
2017-08-07T13:36:17.854Z,30.3
2017-08-07T13:37:19.351Z,31.1
2017-08-07T13:38:20.759Z,32.3
2017-08-07T13:39:22.174Z,33.6
2017-08-07T13:40:23.673Z,35.0
2017-08-07T13:41:25.081Z,34.7
2017-08-07T13:42:26.491Z,32.7
2017-08-07T13:43:27.993Z,33.1
2017-08-07T13:44:29.403Z,33.8
2017-08-07T13:45:30.872Z,34.4
2017-08-07T13:46:32.284Z,35.2
2017-08-07T13:47:33.753Z,36.0
2017-08-07T13:48:35.161Z,37.4
2017-08-07T13:49:36.633Z,39.0
2017-08-07T13:50:38.043Z,39.0
2017-08-07T13:51:39.520Z,39.6
2017-08-07T13:52:40.930Z,39.5
2017-08-07T13:53:42.338Z,39.8
2017-08-07T13:54:43.835Z,40.5
2017-08-07T13:55:45.241Z,35.8
2017-08-07T13:56:46.652Z,35.8
2017-08-07T13:57:48.159Z,38.4
2017-08-07T13:58:49.575Z,37.5
2017-08-07T13:59:50.983Z,39.1
2017-08-07T14:00:52.479Z,38.9
2017-08-07T14:01:53.891Z,39.7
2017-08-07T14:02:55.329Z,37.3
2017-08-07T14:03:56.803Z,35.2
2017-08-07T14:04:58.210Z,36.1
2017-08-07T14:05:59.628Z,36.3
2017-08-07T14:07:01.141Z,36.3
2017-08-07T14:08:02.561Z,36.1
2017-08-07T14:09:03.971Z,35.8
2017-08-07T14:10:05.449Z,35.9
2017-08-07T14:11:06.854Z,37.5
2017-08-07T14:12:08.268Z,38.8
2017-08-07T14:13:09.763Z,39.5
2017-08-07T14:14:11.183Z,39.3
2017-08-07T14:15:12.595Z,41.7
2017-08-07T14:16:14.082Z,40.8
2017-08-07T14:17:15.500Z,41.9
2017-08-07T14:18:16.926Z,40.5
2017-08-07T14:19:18.407Z,37.7
2017-08-07T14:20:19.814Z,35.8
2017-08-07T14:21:21.283Z,36.7
2017-08-07T14:22:22.696Z,38.5
2017-08-07T14:23:24.139Z,36.1
2017-08-07T14:24:25.635Z,36.2
2017-08-07T14:25:27.037Z,37.5
2017-08-07T14:26:28.468Z,37.7
2017-08-07T14:27:29.927Z,39.5
2017-08-07T14:28:31.345Z,41.8
2017-08-07T14:29:32.794Z,39.4
2017-08-07T14:30:34.248Z,40.0
2017-08-07T14:31:35.658Z,37.9
2017-08-07T14:32:37.143Z,37.8
2017-08-07T14:33:38.598Z,36.7
2017-08-07T14:34:40.108Z,36.6
2017-08-07T14:35:41.520Z,36.5
2017-08-07T14:36:42.998Z,34.9
2017-08-07T14:37:44.428Z,36.3
2017-08-07T14:38:45.871Z,39.9
2017-08-07T14:39:47.282Z,42.6
2017-08-07T14:40:48.754Z,43.0
2017-08-07T14:41:50.172Z,40.7
2017-08-07T14:42:51.634Z,39.8
2017-08-07T14:43:53.048Z,40.0
2017-08-07T14:44:54.472Z,39.2
2017-08-07T14:45:55.959Z,40.0
2017-08-07T14:46:57.386Z,40.1
2017-08-07T14:47:58.791Z,38.9
2017-08-07T14:49:00.277Z,40.2
2017-08-07T14:50:01.692Z,41.7
2017-08-07T14:51:03.157Z,42.7
2017-08-07T14:52:04.593Z,43.4
2017-08-07T14:53:06.043Z,42.7
2017-08-07T14:54:07.470Z,41.4
2017-08-07T14:55:08.880Z,41.3
2017-08-07T14:56:10.360Z,42.5
2017-08-07T14:57:11.770Z,39.2
2017-08-07T14:58:13.187Z,39.7
2017-08-07T14:59:14.675Z,41.0
2017-08-07T15:00:16.082Z,40.9
2017-08-07T15:01:17.560Z,41.8
2017-08-07T15:02:19.006Z,41.9
2017-08-07T15:03:20.436Z,42.8
2017-08-07T15:04:21.849Z,40.3
2017-08-07T15:05:23.256Z,41.2
2017-08-07T15:06:24.757Z,40.7
2017-08-07T15:07:26.168Z,40.6
2017-08-07T15:08:27.613Z,41.8
2017-08-07T15:09:29.079Z,42.8
2017-08-07T15:10:30.497Z,42.7
2017-08-07T15:11:31.907Z,42.2
2017-08-07T15:12:33.399Z,43.3
2017-08-07T15:13:34.812Z,44.8
2017-08-07T15:14:36.217Z,42.6
2017-08-07T15:15:37.719Z,41.7
2017-08-07T15:16:39.131Z,41.9
2017-08-07T15:17:40.537Z,41.6
2017-08-07T15:18:42.042Z,41.6
2017-08-07T15:19:43.456Z,42.6
2017-08-07T15:20:44.920Z,44.0
2017-08-07T15:21:46.334Z,45.2
2017-08-07T15:22:47.802Z,46.1
2017-08-07T15:23:49.214Z,42.7
2017-08-07T15:24:50.622Z,41.4
2017-08-07T15:25:52.036Z,42.5
2017-08-07T15:26:53.450Z,43.8
2017-08-07T15:27:54.860Z,44.0
2017-08-07T15:28:56.296Z,41.6
2017-08-07T15:29:57.680Z,40.8
2017-08-07T15:30:59.090Z,42.6
2017-08-07T15:32:00.503Z,44.8
2017-08-07T15:33:01.911Z,45.3
2017-08-07T15:34:03.333Z,45.9
2017-08-07T15:35:04.754Z,45.7
2017-08-07T15:36:06.831Z,45.8
2017-08-07T15:37:08.053Z,46.3
2017-08-07T15:38:09.466Z,45.1
2017-08-07T15:39:10.878Z,46.1
2017-08-07T15:40:12.281Z,41.2
2017-08-07T15:41:13.709Z,39.8
2017-08-07T15:42:15.110Z,40.9
2017-08-07T15:43:16.524Z,42.2
2017-08-07T15:44:17.934Z,42.0
2017-08-07T15:45:19.342Z,41.1
2017-08-07T15:46:20.755Z,39.6
2017-08-07T15:47:22.209Z,39.0
2017-08-07T15:48:23.652Z,39.6
2017-08-07T15:49:25.152Z,40.5
2017-08-07T15:50:26.566Z,40.7
2017-08-07T15:51:27.972Z,40.1
2017-08-07T15:52:29.407Z,39.6
2017-08-07T15:53:30.909Z,40.7
2017-08-07T15:54:32.324Z,41.3
2017-08-07T15:55:33.787Z,40.6
2017-08-07T15:56:35.206Z,40.9
2017-08-07T15:57:36.622Z,39.7
2017-08-07T15:58:38.032Z,40.5
2017-08-07T15:59:39.463Z,40.7
2017-08-07T16:00:40.899Z,42.2
2017-08-07T16:01:42.314Z,43.5
2017-08-07T16:02:43.772Z,43.7
2017-08-07T16:03:45.178Z,43.8
2017-08-07T16:04:46.649Z,44.4
2017-08-07T16:05:48.055Z,44.5
2017-08-07T16:06:49.463Z,44.7
2017-08-07T16:07:51.021Z,45.3
2017-08-07T16:08:52.427Z,45.4
2017-08-07T16:09:53.840Z,46.2
2017-08-07T16:10:55.292Z,46.5
2017-08-07T16:11:56.712Z,47.5
2017-08-07T16:12:58.173Z,47.1
2017-08-07T16:13:59.586Z,48.0
2017-08-07T16:15:01.055Z,48.2
2017-08-07T16:16:02.461Z,48.6
2017-08-07T16:17:03.903Z,47.3
2017-08-07T16:18:05.323Z,46.3
2017-08-07T16:19:06.724Z,46.1
2017-08-07T16:20:08.132Z,46.0
2017-08-07T16:21:09.594Z,45.5
2017-08-07T16:22:11.001Z,46.4
2017-08-07T16:23:12.508Z,48.0
2017-08-07T16:24:13.919Z,48.4
2017-08-07T16:25:15.331Z,50.6
2017-08-07T16:26:16.808Z,51.7
2017-08-07T16:27:18.218Z,52.7
2017-08-07T16:28:19.625Z,53.0
2017-08-07T16:29:21.114Z,51.2
2017-08-07T16:30:22.523Z,47.7
2017-08-07T16:31:23.952Z,46.1
2017-08-07T16:32:25.438Z,45.4
2017-08-07T16:33:26.845Z,46.0
2017-08-07T16:34:28.337Z,46.8
2017-08-07T16:35:29.749Z,46.4
2017-08-07T16:36:31.150Z,45.2
2017-08-07T16:37:32.641Z,45.1
2017-08-07T16:38:34.047Z,46.4
2017-08-07T16:39:35.472Z,47.3
2017-08-07T16:40:36.960Z,47.6
2017-08-07T16:41:38.369Z,47.7
2017-08-07T16:42:39.844Z,49.1
2017-08-07T16:43:41.248Z,49.7
2017-08-07T16:44:42.723Z,49.5
2017-08-07T16:45:44.132Z,46.3
2017-08-07T16:46:45.540Z,46.2
2017-08-07T16:47:47.043Z,45.2
2017-08-07T16:48:48.450Z,44.6
2017-08-07T16:49:49.859Z,43.0
2017-08-07T16:50:51.374Z,43.9
2017-08-07T16:51:52.783Z,44.8
2017-08-07T16:52:54.192Z,44.5
2017-08-07T16:53:55.685Z,45.4
2017-08-07T16:54:57.094Z,45.8
2017-08-07T16:55:58.510Z,44.6
2017-08-07T16:57:00.018Z,46.3
2017-08-07T16:58:01.455Z,47.5
2017-08-07T16:59:02.837Z,46.6
2017-08-07T17:00:04.325Z,47.3
2017-08-07T17:01:05.757Z,48.0
2017-08-07T17:02:07.206Z,49.1
2017-08-07T17:03:08.617Z,49.5
2017-08-07T17:04:10.097Z,50.0
2017-08-07T17:05:11.500Z,51.4
2017-08-07T17:06:12.969Z,51.3
2017-08-07T17:07:14.380Z,50.3
2017-08-07T17:08:15.848Z,50.7
2017-08-07T17:09:17.257Z,51.1
2017-08-07T17:10:18.730Z,51.2
2017-08-07T17:11:20.145Z,52.1
2017-08-07T17:12:21.617Z,54.2
2017-08-07T17:13:23.044Z,53.3
2017-08-07T17:14:24.490Z,54.2
2017-08-07T17:15:25.900Z,53.2
2017-08-07T17:16:27.310Z,54.2
2017-08-07T17:17:28.837Z,53.8
2017-08-07T17:18:30.250Z,52.2
2017-08-07T17:19:31.688Z,51.1
2017-08-07T17:20:33.132Z,50.3
2017-08-07T17:21:34.536Z,50.5
2017-08-07T17:22:36.026Z,51.2
2017-08-07T17:23:37.435Z,50.0
2017-08-07T17:24:38.894Z,47.9
2017-08-07T17:25:40.315Z,48.4
2017-08-07T17:26:41.729Z,49.6
2017-08-07T17:27:43.221Z,49.6
2017-08-07T17:28:44.666Z,48.4
2017-08-07T17:29:46.084Z,49.6
2017-08-07T17:30:47.538Z,51.1
2017-08-07T17:31:48.944Z,51.5
2017-08-07T17:32:50.349Z,53.1
2017-08-07T17:33:51.911Z,53.6
2017-08-07T17:34:53.292Z,54.2
2017-08-07T17:35:54.697Z,55.1
2017-08-07T17:36:56.179Z,55.6
2017-08-07T17:37:57.615Z,56.0
2017-08-07T17:38:59.062Z,56.5
2017-08-07T17:40:00.494Z,56.6
2017-08-07T17:41:01.898Z,57.3
2017-08-07T17:42:03.407Z,57.2
2017-08-07T17:43:04.816Z,57.6
2017-08-07T17:44:06.226Z,58.0
2017-08-07T17:45:07.702Z,58.7
2017-08-07T17:46:09.117Z,58.7
2017-08-07T17:47:10.544Z,59.1
2017-08-07T17:48:12.024Z,59.4
2017-08-07T17:49:13.463Z,60.3
2017-08-07T17:50:14.916Z,60.2
2017-08-07T17:51:16.325Z,60.2
2017-08-07T17:52:17.785Z,60.2
2017-08-07T17:53:19.206Z,59.6
2017-08-07T17:54:20.671Z,59.9
2017-08-07T17:55:22.114Z,60.4
2017-08-07T17:56:23.548Z,60.1
2017-08-07T17:57:25.017Z,60.2
2017-08-07T17:58:26.428Z,59.5
2017-08-07T17:59:27.834Z,59.5
2017-08-07T18:00:30.076Z,59.1
2017-08-07T18:01:31.493Z,59.8
2017-08-07T18:02:32.925Z,59.1
2017-08-07T18:03:34.446Z,59.3
2017-08-07T18:04:35.857Z,59.3
2017-08-07T18:05:37.276Z,59.3
2017-08-07T18:06:39.000Z,59.7
2017-08-07T18:07:40.407Z,60.3
2017-08-07T18:08:42.058Z,60.0
2017-08-07T18:09:43.473Z,60.1
2017-08-07T18:10:45.159Z,59.9
2017-08-07T18:11:46.565Z,60.2
2017-08-07T18:12:47.975Z,61.1
2017-08-07T18:13:53.157Z,60.6
2017-08-07T18:14:54.439Z,60.9
2017-08-07T18:15:55.846Z,61.6
2017-08-07T18:16:57.506Z,61.9
2017-08-07T18:17:58.918Z,61.8
2017-08-07T18:19:00.564Z,62.5
2017-08-07T18:20:02.920Z,63.1
2017-08-07T18:21:04.459Z,63.2
2017-08-07T18:22:05.864Z,63.3
2017-08-07T18:23:07.273Z,63.3
2017-08-07T18:24:09.044Z,64.0
2017-08-07T18:25:10.450Z,63.7
2017-08-07T18:26:11.875Z,63.9
2017-08-07T18:27:13.648Z,63.7
2017-08-07T18:28:15.070Z,63.7
2017-08-07T18:29:16.477Z,63.7
2017-08-07T18:30:18.957Z,64.4
2017-08-07T18:31:20.377Z,64.8
2017-08-07T18:32:21.784Z,64.9
2017-08-07T18:33:23.301Z,64.8
2017-08-07T18:34:24.707Z,64.7
2017-08-07T18:35:26.170Z,65.0
2017-08-07T18:36:27.563Z,65.5
2017-08-07T18:37:29.042Z,65.7
2017-08-07T18:38:30.456Z,65.7
2017-08-07T18:39:31.931Z,65.9
2017-08-07T18:40:33.339Z,66.2
2017-08-07T18:41:34.909Z,66.5
2017-08-07T18:42:36.311Z,67.4
2017-08-07T18:43:37.992Z,66.9
2017-08-07T18:44:39.423Z,67.4
2017-08-07T18:45:41.097Z,66.8
2017-08-07T18:46:42.506Z,67.0
2017-08-07T18:47:43.937Z,67.4
2017-08-07T18:48:45.605Z,67.4
2017-08-07T18:49:47.007Z,67.2
2017-08-07T18:50:48.417Z,67.4
2017-08-07T18:51:49.923Z,67.0
2017-08-07T18:52:51.346Z,67.4
2017-08-07T18:53:53.007Z,67.3
2017-08-07T18:54:54.424Z,67.2
2017-08-07T18:55:56.091Z,67.0
2017-08-07T18:56:57.497Z,67.1
2017-08-07T18:57:58.905Z,68.3
2017-08-07T18:59:00.416Z,68.0
2017-08-07T19:00:01.830Z,68.4
2017-08-07T19:01:03.237Z,68.4
2017-08-07T19:02:04.993Z,67.9
2017-08-07T19:03:06.427Z,67.9
2017-08-07T19:04:07.835Z,68.5
2017-08-07T19:05:09.308Z,68.3
2017-08-07T19:06:10.919Z,68.1
2017-08-07T19:07:12.357Z,67.4
2017-08-07T19:08:13.809Z,68.1
2017-08-07T19:09:15.449Z,68.1
2017-08-07T19:10:16.857Z,68.5
2017-08-07T19:11:18.252Z,69.0
2017-08-07T19:12:19.807Z,68.4
2017-08-07T19:13:21.222Z,68.7
2017-08-07T19:14:22.862Z,69.4
2017-08-07T19:15:24.300Z,69.7
2017-08-07T19:16:25.924Z,69.4
2017-08-07T19:17:27.329Z,69.7
2017-08-07T19:18:29.006Z,69.6
2017-08-07T19:19:30.408Z,70.2
2017-08-07T19:20:32.091Z,70.5
2017-08-07T19:21:33.493Z,70.7
2017-08-07T19:22:34.897Z,70.9
2017-08-07T19:23:36.411Z,71.0
2017-08-07T19:24:37.828Z,70.8
2017-08-07T19:25:48.381Z,70.7
2017-08-07T19:26:49.885Z,70.6
2017-08-07T19:27:51.288Z,71.1
2017-08-07T19:28:52.865Z,70.8
2017-08-07T19:29:54.267Z,71.9
2017-08-07T19:30:55.930Z,72.0
2017-08-07T19:31:57.336Z,72.0
2017-08-07T19:32:58.998Z,71.6
2017-08-07T19:34:00.403Z,72.7
2017-08-07T19:35:02.196Z,72.6
2017-08-07T19:36:03.627Z,72.9
2017-08-07T19:37:05.215Z,72.3
2017-08-07T19:38:06.656Z,71.9
2017-08-07T19:39:08.078Z,72.6
2017-08-07T19:40:09.699Z,72.9
2017-08-07T19:41:11.107Z,72.9
2017-08-07T19:42:12.574Z,72.7
2017-08-07T19:43:14.219Z,72.8
2017-08-07T19:44:15.634Z,72.1
2017-08-07T19:45:17.304Z,71.9
2017-08-07T19:46:18.739Z,72.9
2017-08-07T19:47:20.148Z,72.6
2017-08-07T19:48:21.839Z,72.6
2017-08-07T19:49:23.260Z,72.6
2017-08-07T19:50:24.662Z,72.6
2017-08-07T19:51:26.191Z,72.6
2017-08-07T19:52:27.596Z,72.3
2017-08-07T19:53:28.999Z,72.7
2017-08-07T19:54:30.680Z,72.5
2017-08-07T19:55:32.083Z,72.4
2017-08-07T19:56:33.767Z,72.2
2017-08-07T19:57:35.169Z,71.9
2017-08-07T19:58:36.852Z,72.6
2017-08-07T19:59:38.253Z,73.1
2017-08-07T20:00:40.756Z,73.0
2017-08-07T20:01:42.165Z,73.1
2017-08-07T20:02:43.566Z,73.4
2017-08-07T20:03:45.191Z,73.1
2017-08-07T20:04:46.588Z,73.5
2017-08-07T20:05:48.068Z,73.7
2017-08-07T20:06:49.604Z,73.6
2017-08-07T20:07:53.030Z,73.6
2017-08-07T20:08:54.437Z,74.3
2017-08-07T20:09:55.869Z,73.2
2017-08-07T20:10:57.295Z,72.5
2017-08-07T20:11:58.740Z,73.2
2017-08-07T20:13:00.171Z,72.6
2017-08-07T20:14:01.628Z,72.6
2017-08-07T20:15:03.038Z,72.5
2017-08-07T20:16:04.460Z,72.5
2017-08-07T20:17:05.912Z,72.6
2017-08-07T20:18:07.413Z,72.8
2017-08-07T20:19:08.815Z,73.2
2017-08-07T20:20:10.372Z,73.2
2017-08-07T20:21:11.785Z,73.5
2017-08-07T20:22:13.460Z,72.5
2017-08-07T20:23:14.874Z,72.6
2017-08-07T20:24:16.275Z,72.8
2017-08-07T20:25:17.790Z,72.4
2017-08-07T20:26:19.200Z,73.2
2017-08-07T20:27:20.602Z,73.0
2017-08-07T20:28:22.111Z,73.2
2017-08-07T20:29:23.539Z,73.0
2017-08-07T20:30:25.216Z,73.4
2017-08-07T20:31:26.629Z,73.7
2017-08-07T20:32:28.272Z,74.0
2017-08-07T20:33:29.672Z,73.7
2017-08-07T20:34:31.072Z,74.1
2017-08-07T20:35:32.614Z,73.6
2017-08-07T20:36:34.045Z,73.9
2017-08-07T20:37:35.468Z,74.3
2017-08-07T20:38:36.926Z,74.8
2017-08-07T20:39:38.338Z,74.5
2017-08-07T20:40:39.734Z,74.7
2017-08-07T20:41:41.240Z,75.1
2017-08-07T20:42:42.675Z,75.0
2017-08-07T20:43:44.048Z,75.1
2017-08-07T20:44:45.563Z,73.7
2017-08-07T20:45:46.969Z,74.1
2017-08-07T20:46:48.368Z,74.9
2017-08-07T20:47:49.877Z,74.8
2017-08-07T20:48:51.279Z,75.2
2017-08-07T20:49:52.682Z,75.4
2017-08-07T20:50:54.197Z,75.6
2017-08-07T20:51:55.623Z,75.6
2017-08-07T20:52:57.097Z,75.9
2017-08-07T20:53:58.516Z,75.4
2017-08-07T20:55:00.167Z,76.3
2017-08-07T20:56:01.574Z,76.1
2017-08-07T20:57:03.073Z,75.3
2017-08-07T20:58:04.598Z,75.5
2017-08-07T20:59:06.028Z,74.9
2017-08-07T21:00:07.472Z,75.2
2017-08-07T21:01:08.867Z,75.0
2017-08-07T21:02:10.272Z,76.0
2017-08-07T21:03:11.789Z,75.9
2017-08-07T21:04:13.262Z,75.9
2017-08-07T21:05:14.657Z,76.0
2017-08-07T21:06:16.123Z,76.4
2017-08-07T21:07:17.516Z,76.4
2017-08-07T21:08:18.936Z,76.0
2017-08-07T21:09:20.430Z,76.9
2017-08-07T21:10:21.841Z,76.4
2017-08-07T21:11:23.270Z,76.9
2017-08-07T21:12:24.854Z,77.1
2017-08-07T21:13:26.339Z,77.0
2017-08-07T21:14:27.738Z,76.7
2017-08-07T21:15:29.177Z,76.6
2017-08-07T21:16:30.579Z,76.8
2017-08-07T21:17:31.995Z,77.1
2017-08-07T21:18:33.515Z,77.1
2017-08-07T21:19:34.919Z,76.8
2017-08-07T21:20:36.385Z,76.9
2017-08-07T21:21:37.782Z,76.4
2017-08-07T21:22:39.257Z,76.9
2017-08-07T21:23:40.661Z,77.0
2017-08-07T21:24:42.138Z,76.8
2017-08-07T21:25:43.572Z,77.1
2017-08-07T21:26:45.018Z,76.8
2017-08-07T21:27:46.425Z,77.1
2017-08-07T21:28:47.897Z,77.1
2017-08-07T21:29:49.300Z,77.3
2017-08-07T21:30:50.793Z,77.4
2017-08-07T21:31:52.196Z,78.0
2017-08-07T21:32:53.681Z,77.7
2017-08-07T21:33:55.098Z,77.8
2017-08-07T21:34:56.543Z,78.1
2017-08-07T21:35:57.941Z,78.0
2017-08-07T21:36:59.423Z,77.8
2017-08-07T21:38:00.827Z,78.0
2017-08-07T21:39:02.305Z,78.7
2017-08-07T21:40:03.741Z,78.8
2017-08-07T21:41:05.234Z,78.5
2017-08-07T21:42:06.646Z,79.0
2017-08-07T21:43:08.069Z,78.0
2017-08-07T21:44:09.464Z,78.1
2017-08-07T21:45:10.946Z,77.9
2017-08-07T21:46:12.352Z,77.8
2017-08-07T21:47:13.855Z,77.2
2017-08-07T21:48:15.261Z,77.5
2017-08-07T21:49:16.707Z,77.3
2017-08-07T21:50:18.103Z,77.0
2017-08-07T21:51:19.511Z,78.1
2017-08-07T21:52:21.026Z,78.0
2017-08-07T21:53:22.430Z,78.3
2017-08-07T21:54:23.855Z,78.1
2017-08-07T21:55:25.455Z,78.2
2017-08-07T21:56:26.857Z,77.8
2017-08-07T21:57:28.252Z,78.0
2017-08-07T21:58:29.670Z,77.8
2017-08-07T21:59:31.079Z,78.6
2017-08-07T22:00:32.482Z,78.8
2017-08-07T22:01:34.002Z,78.6
2017-08-07T22:02:35.407Z,78.5
2017-08-07T22:03:36.805Z,78.6
2017-08-07T22:04:38.315Z,79.0
2017-08-07T22:05:39.716Z,79.6
2017-08-07T22:06:41.119Z,79.8
2017-08-07T22:07:42.632Z,80.1
2017-08-07T22:08:44.056Z,80.1
2017-08-07T22:09:45.470Z,80.1
2017-08-07T22:10:46.878Z,80.2
2017-08-07T22:11:48.278Z,80.2
2017-08-07T22:12:49.679Z,80.0
2017-08-07T22:13:51.172Z,80.0
2017-08-07T22:14:52.574Z,80.0
2017-08-07T22:15:54.021Z,80.0
2017-08-07T22:16:55.512Z,80.8
2017-08-07T22:17:56.902Z,81.1
2017-08-07T22:18:58.304Z,81.2
2017-08-07T22:19:59.812Z,81.0
2017-08-07T22:21:01.214Z,81.3
2017-08-07T22:22:02.696Z,80.9
2017-08-07T22:23:04.118Z,80.9
2017-08-07T22:24:05.576Z,81.1
2017-08-07T22:25:06.976Z,81.1
2017-08-07T22:26:08.379Z,81.4
2017-08-07T22:27:09.896Z,81.8
2017-08-07T22:28:11.298Z,81.5
2017-08-07T22:29:12.732Z,81.3
2017-08-07T22:30:14.224Z,81.5
2017-08-07T22:31:15.629Z,81.7
2017-08-07T22:32:17.047Z,81.8
2017-08-07T22:33:18.536Z,81.4
2017-08-07T22:34:19.940Z,81.5
2017-08-07T22:35:21.340Z,81.3
2017-08-07T22:36:22.858Z,81.9
2017-08-07T22:37:24.296Z,81.7
2017-08-07T22:38:25.687Z,81.7
2017-08-07T22:39:27.176Z,82.2
2017-08-07T22:40:28.583Z,82.2
2017-08-07T22:41:29.981Z,81.9
2017-08-07T22:42:31.505Z,81.7
2017-08-07T22:43:32.905Z,81.3
2017-08-07T22:44:34.328Z,81.2
2017-08-07T22:45:35.824Z,81.8
2017-08-07T22:46:37.231Z,81.9
2017-08-07T22:47:38.623Z,81.8
2017-08-07T22:48:40.146Z,81.9
2017-08-07T22:49:41.562Z,81.8
2017-08-07T22:50:42.965Z,81.3
2017-08-07T22:51:44.481Z,81.8
2017-08-07T22:52:45.885Z,81.4
2017-08-07T22:53:47.292Z,81.4
2017-08-07T22:54:48.789Z,81.5
2017-08-07T22:55:50.192Z,81.1
2017-08-07T22:56:51.598Z,81.4
2017-08-07T22:57:53.107Z,81.5
2017-08-07T22:58:54.529Z,81.3
2017-08-07T22:59:55.931Z,81.6
2017-08-07T23:00:57.428Z,81.6
2017-08-07T23:01:58.827Z,81.7
2017-08-07T23:03:00.306Z,81.7
2017-08-07T23:04:01.708Z,81.5
2017-08-07T23:05:03.194Z,81.5
2017-08-07T23:06:04.622Z,81.5
2017-08-07T23:07:06.077Z,81.4